Time;durP1;ratioP1;P1;durP2;ratioP2;P2;SDS_P1;SDS_P2;PMS_P1;PMS_P2;Temp;Humidity;BMP_temperature;BMP_pressure;BME280_temperature;BME280_humidity;BME280_pressure;Samples;Min_cycle;Max_cycle;Signal;HPM_P1;HPM_P2
2022/02/22 00:02:10;;;;;;;;;50.75;41.50;;;;;14.15;58.33;100038.78;146603;592;46014;-67
2022/02/22 00:05:02;;;;;;;;;56.50;45.50;;;;;14.09;58.15;100036.87;146608;585;46010;-68
2022/02/22 00:07:54;;;;;;;;;45.25;35.50;;;;;14.04;58.35;100029.78;146605;564;45043;-69
2022/02/22 00:10:47;;;;;;;;;51.50;41.75;;;;;13.99;58.81;100032.28;146604;744;46010;-72
2022/02/22 00:13:38;;;;;;;;;42.00;33.00;;;;;13.94;58.50;100026.06;146605;610;46036;-72
2022/02/22 00:16:31;;;;;;;;;29.25;27.00;;;;;13.93;58.50;100024.31;146606;606;46010;-71
2022/02/22 00:19:23;;;;;;;;;43.75;36.25;;;;;13.93;58.27;100023.41;146603;563;46012;-70
2022/02/22 00:22:15;;;;;;;;;44.50;37.75;;;;;13.90;58.38;100011.19;146605;570;47010;-71
2022/02/22 00:25:11;;;;;;;;;25.75;22.00;;;;;13.86;58.00;100012.84;146603;666;46016;-70
2022/02/22 00:28:03;;;;;;;;;19.25;17.00;;;;;13.79;57.84;99997.84;146606;564;46028;-69
2022/02/22 00:30:56;;;;;;;;;17.00;15.50;;;;;13.66;58.45;99985.34;146602;575;46016;-69
2022/02/22 00:33:48;;;;;;;;;24.00;22.50;;;;;13.56;58.39;99986.81;146608;574;46010;-70
2022/02/22 00:36:40;;;;;;;;;18.75;16.00;;;;;13.49;58.18;99979.69;146604;685;46014;-70
2022/02/22 00:39:33;;;;;;;;;9.75;9.00;;;;;13.42;58.25;99990.75;146607;621;46010;-70
2022/02/22 00:42:26;;;;;;;;;14.00;11.75;;;;;13.38;58.29;99979.38;146605;573;46016;-70
2022/02/22 00:45:18;;;;;;;;;23.50;19.50;;;;;13.36;58.26;99969.75;146610;631;46012;-70
2022/02/22 00:48:10;;;;;;;;;15.00;14.50;;;;;13.38;58.34;99974.16;146603;617;46016;-68
2022/02/22 00:51:02;;;;;;;;;31.50;28.75;;;;;13.40;58.43;99979.44;146605;586;46012;-70
2022/02/22 00:53:55;;;;;;;;;39.25;34.00;;;;;13.42;58.69;99985.56;146599;604;46016;-70
2022/02/22 00:56:47;;;;;;;;;36.75;31.75;;;;;13.38;59.81;99973.28;146606;653;46010;-70
2022/02/22 00:59:39;;;;;;;;;30.75;29.00;;;;;13.32;59.16;99976.59;146605;595;46012;-67
2022/02/22 01:02:31;;;;;;;;;31.00;28.75;;;;;13.27;60.80;99966.91;146606;579;46010;-71
2022/02/22 01:05:23;;;;;;;;;35.50;30.50;;;;;13.23;59.74;99963.28;146602;598;46015;-70
2022/02/22 01:08:17;;;;;;;;;28.25;25.00;;;;;13.22;59.20;99963.28;146605;628;46020;-72
2022/02/22 01:11:09;;;;;;;;;28.50;25.25;;;;;13.16;59.42;99957.03;146604;626;46012;-71
2022/02/22 01:14:01;;;;;;;;;20.75;19.25;;;;;13.13;59.51;99961.28;146605;574;46010;-68
2022/02/22 01:16:53;;;;;;;;;21.00;17.25;;;;;13.09;59.77;99955.09;146601;585;47016;-68
2022/02/22 01:19:46;;;;;;;;;17.00;14.50;;;;;13.03;59.45;99948.84;146603;629;46020;-69
2022/02/22 01:22:38;;;;;;;;;19.00;14.50;;;;;12.98;59.76;99942.63;146605;581;46012;-69
2022/02/22 01:25:30;;;;;;;;;18.25;14.00;;;;;12.93;59.89;99947.69;146605;596;46020;-70
2022/02/22 01:28:22;;;;;;;;;22.50;21.25;;;;;12.91;59.13;99939.84;146602;606;46017;-69
2022/02/22 01:31:15;;;;;;;;;20.75;18.75;;;;;12.93;59.34;99945.09;146602;604;47010;-67
2022/02/22 01:34:06;;;;;;;;;32.75;29.25;;;;;12.95;58.71;99941.69;146604;569;46016;-68
2022/02/22 01:36:59;;;;;;;;;12.00;10.25;;;;;12.95;58.77;99935.59;146607;589;46010;-67
2022/02/22 01:39:50;;;;;;;;;12.00;10.50;;;;;12.90;58.44;99924.19;146604;589;46016;-67
2022/02/22 01:42:43;;;;;;;;;11.25;10.50;;;;;12.88;57.87;99929.34;146606;570;46010;-66
2022/02/22 01:45:36;;;;;;;;;11.00;10.00;;;;;12.88;57.73;99928.47;146604;598;46916;-66
2022/02/22 01:48:28;;;;;;;;;9.25;7.00;;;;;12.94;56.92;99929.50;146604;604;46020;-72
2022/02/22 01:51:20;;;;;;;;;13.00;12.00;;;;;13.04;56.91;99924.56;146604;569;46017;-72
2022/02/22 01:54:12;;;;;;;;;10.00;9.75;;;;;13.11;56.91;99931.72;146605;565;46020;-72
2022/02/22 01:57:05;;;;;;;;;12.50;11.50;;;;;13.17;56.79;99922.34;146603;573;46034;-68
2022/02/22 01:59:57;;;;;;;;;11.00;10.75;;;;;13.20;56.47;99924.16;146606;707;46020;-69
2022/02/22 02:02:51;;;;;;;;;9.75;9.75;;;;;13.18;56.54;99926.72;146605;618;46012;-69
2022/02/22 02:05:43;;;;;;;;;12.00;12.00;;;;;13.16;56.31;99930.13;146603;576;46021;-67
2022/02/22 02:08:35;;;;;;;;;12.25;9.50;;;;;13.09;56.30;99926.47;146605;636;46016;-71
2022/02/22 02:11:27;;;;;;;;;11.00;9.50;;;;;13.07;56.24;99935.06;146604;601;47010;-68
2022/02/22 02:14:20;;;;;;;;;10.25;8.50;;;;;13.02;56.34;99934.97;146606;704;46014;-69
2022/02/22 02:17:12;;;;;;;;;10.00;10.00;;;;;13.02;55.91;99928.84;146606;610;46010;-68
2022/02/22 02:20:05;;;;;;;;;10.25;9.50;;;;;13.03;54.99;99923.69;146604;610;46016;-67
2022/02/22 02:22:57;;;;;;;;;12.25;10.00;;;;;13.08;55.87;99922.13;146609;603;45020;-67
2022/02/22 02:25:51;;;;;;;;;9.50;9.00;;;;;13.13;55.79;99927.44;146605;606;46016;-67
2022/02/22 02:28:43;;;;;;;;;10.00;9.00;;;;;13.15;55.07;99918.84;146607;591;46010;-67
2022/02/22 02:31:35;;;;;;;;;11.00;8.25;;;;;13.17;55.16;99919.75;146603;606;46016;-68
2022/02/22 02:34:32;;;;;;;;;11.50;11.00;;;;;13.18;54.62;99918.94;146606;617;46021;-70
2022/02/22 02:37:25;;;;;;;;;9.00;8.75;;;;;13.24;54.88;99928.62;146606;730;46012;-68
2022/02/22 02:40:17;;;;;;;;;11.25;9.75;;;;;13.32;53.93;99929.75;146605;687;46010;-67
2022/02/22 02:43:09;;;;;;;;;9.75;9.00;;;;;13.39;53.67;99922.97;146604;592;46917;-67
2022/02/22 02:46:01;;;;;;;;;7.50;7.50;;;;;13.38;54.11;99927.31;146605;642;46032;-66
2022/02/22 02:48:55;;;;;;;;;8.00;6.75;;;;;13.37;54.56;99935.09;146605;608;46014;-66
2022/02/22 02:51:48;;;;;;;;;8.25;8.00;;;;;13.30;54.49;99931.44;146607;693;46030;-66
2022/02/22 02:54:40;;;;;;;;;10.00;9.50;;;;;13.24;54.18;99927.72;146600;619;46016;-66
2022/02/22 02:57:32;;;;;;;;;7.75;7.00;;;;;13.23;54.24;99938.97;146608;579;46010;-66
2022/02/22 03:00:24;;;;;;;;;7.25;6.00;;;;;13.25;54.37;99927.81;146605;578;46016;-66
2022/02/22 03:03:16;;;;;;;;;8.25;8.25;;;;;13.31;53.88;99916.69;146601;736;47010;-65
2022/02/22 03:06:08;;;;;;;;;8.50;6.00;;;;;13.38;54.00;99922.09;146605;664;46031;-64
2022/02/22 03:09:01;;;;;;;;;8.00;6.00;;;;;13.43;53.73;99911.81;146607;594;46020;-65
2022/02/22 03:11:53;;;;;;;;;8.25;8.25;;;;;13.49;53.28;99911.97;146602;629;46017;-65
2022/02/22 03:14:48;;;;;;;;;6.75;6.75;;;;;13.52;53.38;99913.75;146604;582;47010;-65
2022/02/22 03:17:39;;;;;;;;;7.00;7.00;;;;;13.52;53.47;99911.16;146606;617;46012;-65
2022/02/22 03:20:32;;;;;;;;;9.75;7.25;;;;;13.52;53.56;99911.16;146607;634;47010;-65
2022/02/22 03:23:23;;;;;;;;;9.75;7.50;;;;;13.52;53.39;99911.16;146606;646;46033;-64
2022/02/22 03:26:16;;;;;;;;;12.25;7.75;;;;;13.52;52.97;99916.38;146607;610;46021;-64
2022/02/22 03:29:08;;;;;;;;;6.00;6.00;;;;;13.51;53.23;99906.78;146603;612;46033;-66
2022/02/22 03:32:00;;;;;;;;;10.00;6.75;;;;;13.46;53.64;99904.09;146608;569;46010;-66
2022/02/22 03:34:52;;;;;;;;;7.75;6.50;;;;;13.43;53.48;99898.81;146605;592;46017;-65
2022/02/22 03:37:44;;;;;;;;;8.50;6.75;;;;;13.40;53.83;99901.31;146608;569;46010;-66
2022/02/22 03:40:38;;;;;;;;;8.50;6.75;;;;;13.35;53.42;99895.09;146606;592;46031;-66
2022/02/22 03:43:30;;;;;;;;;9.25;7.00;;;;;13.27;53.64;99891.41;146607;601;46010;-68
2022/02/22 03:46:22;;;;;;;;;8.75;8.00;;;;;13.21;54.02;99894.72;146606;566;46012;-66
2022/02/22 03:49:14;;;;;;;;;35.00;30.50;;;;;13.17;54.18;99892.84;146607;582;46010;-66
2022/02/22 03:52:07;;;;;;;;;25.75;23.25;;;;;13.12;54.05;99897.94;146606;593;46012;-66
2022/02/22 03:54:59;;;;;;;;;9.25;9.00;;;;;13.09;54.07;99899.56;146607;591;46020;-66
2022/02/22 03:57:52;;;;;;;;;11.00;9.25;;;;;13.04;54.48;99915.03;146604;565;46917;-65
2022/02/22 04:00:45;;;;;;;;;22.50;18.50;;;;;13.00;54.86;99910.59;146603;578;47010;-68
2022/02/22 04:03:37;;;;;;;;;15.75;14.00;;;;;12.99;54.82;99910.53;146604;614;46013;-69
2022/02/22 04:06:29;;;;;;;;;16.25;15.25;;;;;12.95;55.29;99913.06;146605;590;46020;-67
2022/02/22 04:09:21;;;;;;;;;14.00;12.00;;;;;12.92;54.57;99901.69;146600;589;46016;-67
2022/02/22 04:12:15;;;;;;;;;10.75;7.50;;;;;12.81;54.62;99896.19;146606;658;46020;-68
2022/02/22 04:15:09;;;;;;;;;11.00;9.50;;;;;12.75;54.65;99900.34;146609;598;46012;-69
2022/02/22 04:18:01;;;;;;;;;16.25;15.50;;;;;12.74;55.06;99908.94;146605;625;46011;-69
2022/02/22 04:20:53;;;;;;;;;9.75;9.25;;;;;12.70;54.05;99903.66;146603;569;46016;-70
2022/02/22 04:23:45;;;;;;;;;14.00;12.25;;;;;12.76;54.37;99900.34;146606;598;46020;-70
2022/02/22 04:26:37;;;;;;;;;43.50;37.00;;;;;12.84;55.16;99906.69;146602;564;47013;-72
2022/02/22 04:29:29;;;;;;;;;20.00;18.25;;;;;12.88;55.46;99907.66;146603;707;47010;-69
2022/02/22 04:32:21;;;;;;;;;21.75;19.25;;;;;12.92;56.25;99912.97;146605;601;46015;-68
2022/02/22 04:35:14;;;;;;;;;23.00;19.50;;;;;11.80;55.51;99706.88;146605;615;46021;-68
2022/02/22 04:38:06;;;;;;;;;17.75;16.00;;;;;12.92;55.77;99905.16;146605;578;46012;-67
2022/02/22 04:40:58;;;;;;;;;22.75;19.25;;;;;12.96;56.32;99908.75;146605;586;46021;-68
2022/02/22 04:43:50;;;;;;;;;25.75;24.25;;;;;12.99;56.33;99905.34;146605;569;46916;-68
2022/02/22 04:46:43;;;;;;;;;20.75;19.00;;;;;13.00;56.48;99899.31;146607;569;46010;-68
2022/02/22 04:49:35;;;;;;;;;28.25;27.00;;;;;12.96;56.37;99898.34;146603;582;46917;-68
2022/02/22 04:52:27;;;;;;;;;25.75;22.00;;;;;12.94;56.47;99887.88;146607;582;47010;-70
2022/02/22 04:55:20;;;;;;;;;23.00;21.50;;;;;12.89;56.34;99885.97;146606;565;46016;-69
2022/02/22 04:58:12;;;;;;;;;23.75;18.75;;;;;12.84;56.71;99888.47;146606;600;46020;-70
2022/02/22 05:01:03;;;;;;;;;20.00;19.00;;;;;12.80;56.76;99884.00;146605;600;46012;-71
2022/02/22 05:03:56;;;;;;;;;25.50;22.00;;;;;12.83;57.18;99876.28;146605;598;46021;-69
2022/02/22 05:06:48;;;;;;;;;23.00;22.00;;;;;12.84;57.35;99885.00;146604;581;46016;-70
2022/02/22 05:09:40;;;;;;;;;33.25;30.25;;;;;12.84;57.27;99883.25;146604;570;46021;-71
2022/02/22 05:12:32;;;;;;;;;36.25;32.00;;;;;12.81;57.64;99874.50;146605;590;47012;-71
2022/02/22 05:15:25;;;;;;;;;40.50;33.50;;;;;12.73;58.01;99869.06;146610;563;46010;-64
2022/02/22 05:18:17;;;;;;;;;30.25;26.00;;;;;12.64;57.99;99871.37;146605;576;46014;-68
2022/02/22 05:21:09;;;;;;;;;30.25;27.75;;;;;12.57;58.20;99879.84;146607;578;46010;-69
2022/02/22 05:24:01;;;;;;;;;35.50;30.50;;;;;12.50;59.15;99871.00;146603;576;46013;-68
2022/02/22 05:26:53;;;;;;;;;32.25;26.50;;;;;12.40;59.20;99866.38;146607;628;45021;-67
2022/02/22 05:29:46;;;;;;;;;40.25;33.75;;;;;12.33;59.12;99864.41;146601;595;46034;-69
2022/02/22 05:32:38;;;;;;;;;23.75;22.50;;;;;12.30;59.40;99861.69;146604;622;46021;-68
2022/02/22 05:35:30;;;;;;;;;24.25;22.25;;;;;12.25;59.58;99865.06;146599;582;47916;-68
2022/02/22 05:38:22;;;;;;;;;25.50;23.50;;;;;12.23;59.73;99858.91;146605;582;46020;-66
2022/02/22 05:41:17;;;;;;;;;19.00;17.00;;;;;12.21;59.49;99859.69;146602;600;47012;-66
2022/02/22 05:44:09;;;;;;;;;25.25;18.50;;;;;12.14;60.12;99850.84;146603;590;46020;-68
2022/02/22 05:47:01;;;;;;;;;16.75;16.50;;;;;12.25;59.52;99848.59;146601;570;47013;-68
2022/02/22 05:49:53;;;;;;;;;27.00;22.50;;;;;13.07;60.14;99851.78;146602;569;47010;-68
2022/02/22 05:52:45;;;;;;;;;23.00;21.75;;;;;14.23;57.22;99844.28;146600;597;46012;-67
2022/02/22 05:55:38;;;;;;;;;37.50;31.75;;;;;15.35;53.68;99849.16;146609;579;46010;-68
2022/02/22 05:58:30;;;;;;;;;36.00;31.00;;;;;16.19;50.22;99860.16;146602;614;46016;-67
2022/02/22 06:01:22;;;;;;;;;29.25;27.25;;;;;16.77;50.21;99865.34;146606;570;46011;-66
2022/02/22 06:04:15;;;;;;;;;30.25;27.75;;;;;17.32;48.84;99865.97;146602;566;46016;-67
2022/02/22 06:07:08;;;;;;;;;32.25;30.50;;;;;17.86;49.07;99863.87;146605;578;46010;-71
2022/02/22 06:10:00;;;;;;;;;30.25;27.25;;;;;18.39;47.77;99856.34;146603;635;46017;-69
2022/02/22 06:12:52;;;;;;;;;32.75;28.00;;;;;19.03;47.10;99861.03;146606;560;46020;-69
2022/02/22 06:15:44;;;;;;;;;33.75;30.00;;;;;19.67;45.76;99862.94;146602;607;46034;-68
2022/02/22 06:18:37;;;;;;;;;27.75;24.75;;;;;20.22;44.51;99854.13;146605;588;47010;-69
2022/02/22 06:21:28;;;;;;;;;31.75;29.25;;;;;20.53;43.47;99852.34;146605;621;46014;-69
2022/02/22 06:24:21;;;;;;;;;48.25;38.00;;;;;20.61;44.95;99862.84;146605;576;46011;-69
2022/02/22 06:27:13;;;;;;;;;33.25;30.50;;;;;20.76;42.65;99853.12;146604;701;46016;-69
2022/02/22 06:30:05;;;;;;;;;36.25;31.00;;;;;20.82;44.44;99859.25;146608;578;46011;-68
2022/02/22 06:32:58;;;;;;;;;35.75;31.00;;;;;21.01;45.00;99860.03;146602;611;46017;-68
2022/02/22 06:35:50;;;;;;;;;33.50;29.00;;;;;21.39;44.67;99862.47;146605;571;46020;-68
2022/02/22 06:38:42;;;;;;;;;29.25;26.50;;;;;21.76;43.83;99855.16;146600;588;46017;-66
2022/02/22 06:41:34;;;;;;;;;134.00;123.75;;;;;21.92;42.52;99848.84;146612;580;46010;-69
2022/02/22 06:44:26;;;;;;;;;28.25;25.00;;;;;21.76;41.00;99849.03;146610;579;46012;-70
2022/02/22 06:47:19;;;;;;;;;29.00;26.50;;;;;21.30;40.92;99858.09;146607;579;46010;-70
2022/02/22 06:50:12;;;;;;;;;32.00;27.75;;;;;20.80;43.41;99858.38;146602;601;47014;-70
2022/02/22 06:53:05;;;;;;;;;30.75;22.50;;;;;20.36;43.83;99854.09;146606;570;46011;-70
2022/02/22 06:55:57;;;;;;;;;26.00;21.75;;;;;19.93;44.93;99851.53;146603;563;46916;-70
2022/02/22 06:58:50;;;;;;;;;24.00;22.00;;;;;19.34;46.00;99809.41;146607;600;46010;-70
2022/02/22 07:01:42;;;;;;;;;24.00;22.25;;;;;19.24;46.58;99849.69;146603;591;47014;-72
2022/02/22 07:04:34;;;;;;;;;19.50;18.00;;;;;19.00;47.18;99850.50;146606;572;46010;-72
2022/02/22 07:07:27;;;;;;;;;23.00;21.75;;;;;18.95;47.99;99854.88;146601;566;46034;-71
2022/02/22 07:10:19;;;;;;;;;20.25;17.50;;;;;18.97;47.59;99863.66;146605;674;46010;-71
2022/02/22 07:13:11;;;;;;;;;20.25;17.25;;;;;18.99;47.56;99850.50;146604;600;46016;-73
2022/02/22 07:16:04;;;;;;;;;17.50;14.75;;;;;19.03;48.43;99847.87;146611;603;46011;-72
2022/02/22 07:18:56;;;;;;;;;17.50;13.25;;;;;18.70;47.59;99781.22;146623;657;46916;-69
2022/02/22 07:21:48;;;;;;;;;15.00;14.00;;;;;19.22;47.56;99851.47;146628;567;45010;-69
2022/02/22 07:24:40;;;;;;;;;19.00;15.25;;;;;19.25;49.00;99848.84;146624;585;45016;-70
2022/02/22 07:27:32;;;;;;;;;21.00;16.50;;;;;19.30;49.52;99846.22;146629;585;45020;-67
2022/02/22 07:30:25;;;;;;;;;21.75;18.75;;;;;19.43;47.81;99836.59;146628;570;45016;-67
2022/02/22 07:33:18;;;;;;;;;16.50;14.50;;;;;19.54;48.02;99840.13;146624;592;45020;-69
2022/02/22 07:36:11;;;;;;;;;20.00;18.75;;;;;19.63;48.41;99840.13;146628;605;45012;-68
2022/02/22 07:39:05;;;;;;;;;19.50;17.75;;;;;19.67;47.61;99830.50;146625;665;45010;-69
2022/02/22 07:41:57;;;;;;;;;18.75;15.50;;;;;19.62;47.41;99838.34;146627;572;45016;-74
2022/02/22 07:44:49;;;;;;;;;17.75;16.50;;;;;19.60;46.72;99838.34;146625;586;45020;-74
2022/02/22 07:47:41;;;;;;;;;14.00;13.00;;;;;19.56;46.28;99833.09;146628;585;45014;-74
2022/02/22 07:50:36;;;;;;;;;11.75;11.75;;;;;19.49;46.10;99845.34;146627;565;45020;-74
2022/02/22 07:53:28;;;;;;;;;10.00;10.00;;;;;19.54;46.63;99848.87;146628;665;45029;-74
2022/02/22 07:56:21;;;;;;;;;9.75;9.75;;;;;19.61;46.29;99853.25;146629;569;45010;-75
2022/02/22 07:59:13;;;;;;;;;16.75;15.50;;;;;19.67;45.62;99843.66;146626;676;45917;-75
2022/02/22 08:02:05;;;;;;;;;16.50;16.50;;;;;19.72;45.19;99849.78;146626;604;46010;-75
2022/02/22 08:04:58;;;;;;;;;14.00;11.00;;;;;19.76;44.95;99848.91;146626;580;45016;-75
2022/02/22 08:07:50;;;;;;;;;18.75;14.50;;;;;19.75;44.02;99852.41;146625;604;45021;-75
2022/02/22 08:10:41;;;;;;;;;23.25;20.00;;;;;19.55;46.71;99855.00;146628;626;46012;-75
2022/02/22 08:13:34;;;;;;;;;15.50;13.75;;;;;19.26;45.34;99852.34;146627;564;45020;-75
2022/02/22 08:16:27;;;;;;;;;12.50;11.75;;;;;19.01;46.63;99843.53;146623;600;45014;-75
2022/02/22 08:19:19;;;;;;;;;14.00;12.75;;;;;18.66;47.08;99839.88;146605;569;46020;-73
2022/02/22 08:22:11;;;;;;;;;12.00;9.75;;;;;18.41;48.99;99835.34;146604;610;47013;-67
2022/02/22 08:25:03;;;;;;;;;16.00;13.75;;;;;18.40;49.92;99836.22;146604;624;46020;-68
2022/02/22 08:27:55;;;;;;;;;13.00;10.25;;;;;18.49;48.38;99840.66;146603;583;46016;-69
2022/02/22 08:30:47;;;;;;;;;12.25;11.75;;;;;18.66;47.91;99841.59;146604;581;46010;-70
2022/02/22 08:33:40;;;;;;;;;15.75;15.75;;;;;18.90;48.98;99831.22;146603;622;46016;-69
2022/02/22 08:36:33;;;;;;;;;12.75;9.75;;;;;19.16;48.90;99835.69;146605;586;47010;-69
2022/02/22 08:39:26;;;;;;;;;12.50;12.00;;;;;19.50;49.51;99833.06;146601;578;46016;-70
2022/02/22 08:42:18;;;;;;;;;14.75;12.50;;;;;19.76;46.69;99835.75;146606;569;46010;-69
2022/02/22 08:45:10;;;;;;;;;16.00;14.75;;;;;19.80;47.07;99838.38;146603;600;46012;-69
2022/02/22 08:48:03;;;;;;;;;19.75;18.75;;;;;19.88;47.24;99827.88;146605;579;46010;-69
2022/02/22 08:50:54;;;;;;;;;13.00;12.00;;;;;19.90;45.01;99830.47;146606;600;46013;-68
2022/02/22 08:53:47;;;;;;;;;11.00;10.50;;;;;19.83;46.58;99830.47;146608;576;46010;-68
2022/02/22 08:56:39;;;;;;;;;18.25;13.75;;;;;19.80;44.06;99829.62;146604;580;46016;-68
2022/02/22 08:59:31;;;;;;;;;13.50;11.00;;;;;18.86;42.99;99679.75;146604;664;46021;-69
2022/02/22 09:02:23;;;;;;;;;14.75;14.25;;;;;19.68;44.64;99834.88;146601;585;46916;-69
2022/02/22 09:05:16;;;;;;;;;22.00;17.50;;;;;19.48;43.25;99834.84;146603;617;46029;-69
2022/02/22 09:08:09;;;;;;;;;11.50;9.25;;;;;19.32;41.07;99833.97;146603;664;46016;-70
2022/02/22 09:11:01;;;;;;;;;8.75;7.25;;;;;19.33;42.68;99846.22;146607;569;47012;-70
2022/02/22 09:13:53;;;;;;;;;9.75;9.00;;;;;19.41;43.09;99833.97;146604;628;46016;-70
2022/02/22 09:16:45;;;;;;;;;7.25;6.25;;;;;19.44;39.36;99840.94;146607;737;46020;-68
2022/02/22 09:19:37;;;;;;;;;8.25;6.50;;;;;19.43;40.24;99845.34;146607;680;46016;-68
2022/02/22 09:22:29;;;;;;;;;8.75;7.00;;;;;19.43;43.07;99841.84;146607;589;46010;-67
2022/02/22 09:25:22;;;;;;;;;6.75;6.25;;;;;19.46;41.83;99840.09;146607;584;46916;-68
2022/02/22 09:28:15;;;;;;;;;10.00;7.50;;;;;19.57;39.53;99838.34;146605;574;46021;-69
2022/02/22 09:31:07;;;;;;;;;8.00;7.00;;;;;19.63;42.03;99837.50;146603;677;46917;-68
2022/02/22 09:33:59;;;;;;;;;6.00;6.00;;;;;19.65;37.93;99832.25;146607;653;46010;-69
2022/02/22 09:36:51;;;;;;;;;9.00;5.75;;;;;19.68;41.01;99819.09;146604;574;46917;-69
2022/02/22 09:39:44;;;;;;;;;8.25;5.75;;;;;19.71;41.44;99817.34;146607;563;46010;-68
2022/02/22 09:42:35;;;;;;;;;4.50;4.50;;;;;19.68;39.77;99812.06;146605;677;47012;-68
2022/02/22 09:45:28;;;;;;;;;8.00;6.00;;;;;19.61;39.23;99812.94;146606;677;46029;-70
2022/02/22 09:48:20;;;;;;;;;8.75;6.75;;;;;19.63;40.75;99813.81;146603;565;47014;-68
2022/02/22 09:51:12;;;;;;;;;7.75;7.75;;;;;19.62;39.51;99815.56;146608;691;46021;-68
2022/02/22 09:54:04;;;;;;;;;6.75;5.00;;;;;19.70;40.43;99809.47;146607;628;46016;-68
2022/02/22 09:56:56;;;;;;;;;7.75;6.25;;;;;19.83;41.40;99806.81;146604;669;46020;-69
2022/02/22 09:59:48;;;;;;;;;9.75;8.75;;;;;20.04;40.58;99805.03;146604;595;46017;-69
2022/02/22 10:02:41;;;;;;;;;8.50;8.50;;;;;20.17;40.55;99806.75;146609;570;46010;-68
2022/02/22 10:05:34;;;;;;;;;9.25;9.25;;;;;20.12;40.10;99803.25;146606;633;46013;-69
2022/02/22 10:08:35;;;;;;;;;9.00;9.00;;;;;20.12;41.90;99797.13;146606;626;46020;-69
2022/02/22 10:11:27;;;;;;;;;5.33;3.67;;;;;19.97;38.21;99790.13;146606;581;47012;-68
2022/02/22 10:14:45;;;;;;;;;6.00;6.00;;;;;18.70;38.77;99604.41;146609;649;46011;-69
2022/02/22 10:17:45;;;;;;;;;9.00;7.00;;;;;19.77;42.39;99790.16;146605;741;46012;-68
2022/02/22 10:20:37;;;;;;;;;9.67;7.67;;;;;19.81;40.65;99784.00;146610;570;46011;-68
2022/02/22 10:23:35;;;;;;;;;6.75;6.25;;;;;19.83;38.93;99783.12;146606;603;46012;-68
2022/02/22 10:26:31;;;;;;;;;6.00;6.00;;;;;19.81;40.58;99779.66;146606;591;46020;-68
2022/02/22 10:29:25;;;;;;;;;6.75;6.75;;;;;19.86;41.39;99773.50;146606;703;46017;-68
2022/02/22 10:32:21;;;;;;;;;6.75;5.50;;;;;19.99;40.67;99765.56;146608;570;46010;-68
2022/02/22 10:35:13;;;;;;;;;7.00;7.00;;;;;20.11;39.09;99771.69;146604;569;47012;-70
2022/02/22 10:38:18;;;;;;;;;7.00;6.00;;;;;20.18;39.59;99758.50;146610;604;46010;-68
2022/02/22 10:41:16;;;;;;;;;8.00;6.00;;;;;20.25;38.41;99760.25;146604;637;46016;-67
2022/02/22 10:44:09;;;;;;;;;5.67;5.00;;;;;20.41;40.82;99757.56;146609;587;46010;-69
2022/02/22 10:47:01;;;;;;;;;6.75;6.25;;;;;19.62;40.25;99589.44;146606;581;46012;-70
2022/02/22 10:49:53;;;;;;;;;7.50;7.50;;;;;20.65;39.40;99746.91;146607;691;46011;-72
2022/02/22 10:52:45;;;;;;;;;6.25;6.00;;;;;20.80;39.92;99743.31;146606;577;46012;-72
2022/02/22 10:55:37;;;;;;;;;7.00;7.00;;;;;20.97;39.88;99738.81;146603;629;46020;-73
2022/02/22 10:58:31;;;;;;;;;5.67;5.67;;;;;21.19;40.24;99736.03;146604;604;46017;-72
2022/02/22 11:01:23;;;;;;;;;5.67;4.33;;;;;21.38;38.71;99728.88;146609;659;46020;-71
2022/02/22 11:04:15;;;;;;;;;4.25;4.25;;;;;21.49;39.11;99721.72;146604;616;46015;-73
2022/02/22 11:07:09;;;;;;;;;6.00;4.25;;;;;21.58;38.94;99724.28;146606;569;46021;-69
2022/02/22 11:10:03;;;;;;;;;7.00;5.50;;;;;21.67;38.42;99734.75;146603;563;46016;-71
2022/02/22 11:13:00;;;;;;;;;4.75;4.75;;;;;21.73;39.67;99725.03;146606;694;46021;-71
2022/02/22 11:15:51;;;;;;;;;9.00;6.00;;;;;21.74;38.83;99727.63;146608;569;45016;-71
2022/02/22 11:18:55;;;;;;;;;4.50;4.50;;;;;21.80;39.86;99732.84;146608;700;46010;-72
2022/02/22 11:21:49;;;;;;;;;5.75;5.00;;;;;21.73;35.98;99728.53;146606;608;46012;-70
2022/02/22 11:24:59;;;;;;;;;4.25;4.00;;;;;21.70;36.19;99719.78;146604;581;46032;-70
2022/02/22 11:27:51;;;;;;;;;9.00;9.00;;;;;21.72;38.85;99720.66;146603;631;46016;-70
2022/02/22 11:30:44;;;;;;;;;10.50;7.75;;;;;21.75;37.56;99710.94;146608;588;46010;-70
2022/02/22 11:34:02;;;;;;;;;10.00;8.25;;;;;21.51;35.63;99703.28;146603;643;46016;-70
2022/02/22 11:36:57;;;;;;;;;12.25;9.50;;;;;21.11;37.32;99687.75;146609;620;46010;-71
2022/02/22 11:39:55;;;;;;;;;10.25;9.50;;;;;20.79;37.61;99674.84;146606;611;46916;-71
2022/02/22 11:42:47;;;;;;;;;9.25;8.25;;;;;20.39;37.36;99665.37;146605;704;46020;-70
2022/02/22 11:45:40;;;;;;;;;6.75;6.50;;;;;20.23;38.56;99658.47;146599;730;48916;-69
2022/02/22 11:48:38;;;;;;;;;9.50;8.75;;;;;20.09;40.00;99666.41;146607;618;46020;-70
2022/02/22 11:51:30;;;;;;;;;6.75;6.50;;;;;20.05;40.46;99665.56;146604;576;46917;-68
2022/02/22 11:54:28;;;;;;;;;7.00;7.00;;;;;20.06;41.04;99659.44;146606;589;46010;-70
2022/02/22 11:57:22;;;;;;;;;9.00;8.00;;;;;20.02;38.55;99655.03;146605;576;46017;-69
2022/02/22 12:00:15;;;;;;;;;9.50;6.25;;;;;20.04;41.35;99657.69;146607;606;46020;-69
2022/02/22 12:03:15;;;;;;;;;6.50;6.25;;;;;20.11;42.25;99655.88;146605;679;46012;-69
2022/02/22 12:06:09;;;;;;;;;7.50;7.00;;;;;20.19;39.71;99667.28;146604;666;47010;-69
2022/02/22 12:09:10;;;;;;;;;7.50;7.50;;;;;20.24;42.36;99644.41;146603;593;46016;-69
2022/02/22 12:12:13;;;;;;;;;4.75;4.75;;;;;20.24;41.50;99647.03;146609;670;46010;-68
2022/02/22 12:15:06;;;;;;;;;6.50;6.00;;;;;20.22;41.10;99649.69;146604;618;46016;-69
2022/02/22 12:17:59;;;;;;;;;7.00;6.25;;;;;20.16;40.71;99646.22;146603;615;47010;-69
2022/02/22 12:20:52;;;;;;;;;8.25;7.25;;;;;20.12;40.39;99647.97;146605;631;47013;-70
2022/02/22 12:23:46;;;;;;;;;6.75;6.75;;;;;20.15;40.17;99642.69;146607;681;46010;-70
2022/02/22 12:26:42;;;;;;;;;7.75;7.75;;;;;20.11;40.16;99640.97;146604;600;46032;-68
2022/02/22 12:29:34;;;;;;;;;9.00;7.75;;;;;20.12;41.16;99647.97;146604;569;46032;-67
2022/02/22 12:32:32;;;;;;;;;7.50;7.25;;;;;20.25;41.45;99633.03;146602;673;46016;-69
2022/02/22 12:35:40;;;;;;;;;6.50;5.00;;;;;20.41;41.73;99639.94;146605;574;46021;-69
2022/02/22 12:38:32;;;;;;;;;7.25;6.75;;;;;20.50;40.61;99639.00;146604;668;46016;-68
2022/02/22 12:41:26;;;;;;;;;7.00;6.00;;;;;20.56;40.84;99644.28;146609;683;46010;-67
2022/02/22 12:44:25;;;;;;;;;5.67;5.67;;;;;20.64;40.26;99631.03;146606;646;47012;-66
2022/02/22 12:47:18;;;;;;;;;7.00;6.00;;;;;20.71;37.67;99643.28;146609;611;46010;-67
2022/02/22 12:50:11;;;;;;;;;9.75;7.25;;;;;20.66;38.79;99634.53;146609;564;46012;-66
2022/02/22 12:53:03;;;;;;;;;6.25;5.50;;;;;20.50;36.87;99637.25;146606;668;46010;-67
2022/02/22 12:55:55;;;;;;;;;7.00;6.00;;;;;20.38;38.50;99624.16;146606;579;46016;-66
2022/02/22 12:58:47;;;;;;;;;8.67;6.33;;;;;20.29;36.96;99621.59;146609;576;46021;-68
2022/02/22 13:01:42;;;;;;;;;6.00;5.25;;;;;19.39;38.93;99460.66;146606;577;46027;-69
2022/02/22 13:04:42;;;;;;;;;7.33;3.67;;;;;20.26;39.25;99616.34;146607;611;46021;-67
2022/02/22 13:07:35;;;;;;;;;7.50;7.25;;;;;20.24;37.96;99613.69;146605;631;46014;-69
2022/02/22 13:10:27;;;;;;;;;13.75;8.25;;;;;20.23;39.45;99616.34;146605;577;46020;-69
2022/02/22 13:13:28;;;;;;;;;6.75;6.75;;;;;20.22;40.29;99619.87;146609;569;46012;-69
2022/02/22 13:16:21;;;;;;;;;5.67;5.67;;;;;20.18;40.05;99621.63;146609;589;46010;-67
2022/02/22 13:19:14;;;;;;;;;6.25;6.00;;;;;20.16;40.43;99615.50;146603;679;46017;-69
2022/02/22 13:22:09;;;;;;;;;7.75;5.50;;;;;20.14;40.53;99614.63;146605;673;46020;-69
2022/02/22 13:25:03;;;;;;;;;7.25;7.25;;;;;20.06;40.65;99622.59;146606;609;45016;-69